createdAt,value
2023-01-13T00:01:21.234Z,0.50
2023-01-13T00:03:49.886Z,0.38
2023-01-13T00:06:20.076Z,0.20
2023-01-13T00:08:49.988Z,0.30
2023-01-13T00:11:19.097Z,0.45
2023-01-13T00:13:47.138Z,0.43
2023-01-13T00:16:17.448Z,0.30
2023-01-13T00:18:47.489Z,0.28
2023-01-13T00:21:17.345Z,0.40
2023-01-13T00:23:46.099Z,0.63
2023-01-13T00:26:16.166Z,0.50
2023-01-13T00:28:44.370Z,0.30
2023-01-13T00:31:15.371Z,0.17
2023-01-13T00:33:43.584Z,0.30
2023-01-13T00:36:15.345Z,0.22
2023-01-13T00:38:44.004Z,0.17
2023-01-13T00:41:13.784Z,0.22
2023-01-13T00:43:41.439Z,0.20
2023-01-13T00:46:11.989Z,0.20
2023-01-13T00:48:40.368Z,0.10
2023-01-13T00:51:10.880Z,0.20
2023-01-13T00:53:43.114Z,0.20
2023-01-13T00:56:16.668Z,0.13
2023-01-13T00:58:45.856Z,0.30
2023-01-13T01:01:15.761Z,0.55
2023-01-13T01:03:43.961Z,0.20
2023-01-13T01:06:14.891Z,0.20
2023-01-13T01:08:44.839Z,0.30
2023-01-13T01:11:15.684Z,0.25
2023-01-13T01:13:43.952Z,0.38
2023-01-13T01:16:13.843Z,0.20
2023-01-13T01:18:43.975Z,0.30
2023-01-13T01:21:12.640Z,0.30
2023-01-13T01:23:41.308Z,0.28
2023-01-13T01:26:14.035Z,0.20
2023-01-13T01:28:42.690Z,0.30
2023-01-13T01:31:13.622Z,0.10
2023-01-13T01:33:42.294Z,0.20
2023-01-13T01:36:12.206Z,0.15
2023-01-13T01:38:40.293Z,0.20
2023-01-13T01:41:11.016Z,0.05
2023-01-13T01:43:59.427Z,0.20
2023-01-13T01:46:28.911Z,0.30
2023-01-13T01:49:01.658Z,0.20
2023-01-13T01:51:33.529Z,0.28
2023-01-13T01:54:03.786Z,0.30
2023-01-13T01:56:34.910Z,0.10
2023-01-13T01:59:03.012Z,0.20
2023-01-13T02:01:31.141Z,0.20
2023-01-13T02:04:05.048Z,0.32
2023-01-13T02:06:33.102Z,0.30
2023-01-13T02:09:01.748Z,0.20
2023-01-13T02:11:51.289Z,0.10
2023-01-13T02:14:19.893Z,0.20
2023-01-13T02:16:58.099Z,0.15
2023-01-13T02:20:09.749Z,0.32
2023-01-13T02:22:57.763Z,0.10
2023-01-13T02:25:59.231Z,0.45
2023-01-13T02:29:06.089Z,0.20
2023-01-13T02:31:43.360Z,0.10
2023-01-13T02:34:14.654Z,0.20
2023-01-13T02:36:51.005Z,0.20
2023-01-13T02:39:26.127Z,0.10
2023-01-13T02:42:15.011Z,0.25
2023-01-13T02:44:46.622Z,0.10
2023-01-13T02:47:21.453Z,0.08
2023-01-13T02:49:53.620Z,0.13
2023-01-13T02:52:26.704Z,0.10
2023-01-13T02:54:58.760Z,0.10
2023-01-13T02:57:29.195Z,0.28
2023-01-13T02:59:57.958Z,0.00
2023-01-13T03:02:27.695Z,0.10
2023-01-13T03:04:58.228Z,0.20
2023-01-13T03:07:49.340Z,0.20
2023-01-13T03:10:28.774Z,0.10
2023-01-13T03:13:04.413Z,0.20
2023-01-13T03:15:40.384Z,0.28
2023-01-13T03:18:19.722Z,0.10
2023-01-13T03:20:55.670Z,0.20
2023-01-13T03:23:31.252Z,0.30
2023-01-13T03:26:06.524Z,0.28
2023-01-13T03:28:41.173Z,0.15
2023-01-13T03:31:15.847Z,0.00
2023-01-13T03:33:49.853Z,0.20
2023-01-13T03:36:22.988Z,0.20
2023-01-13T03:38:54.916Z,0.00
2023-01-13T03:41:28.618Z,0.22
2023-01-13T03:44:22.202Z,0.15
2023-01-13T03:46:59.547Z,0.47
2023-01-13T03:49:33.695Z,0.22
2023-01-13T03:52:06.357Z,0.20
2023-01-13T03:57:10.219Z,0.30
2023-01-13T03:59:42.517Z,0.38
2023-01-13T04:02:15.525Z,0.20
2023-01-13T04:04:50.070Z,0.30
2023-01-13T04:07:28.574Z,0.20
2023-01-13T04:10:00.251Z,0.03
2023-01-13T04:12:52.007Z,0.17
2023-01-13T04:15:24.043Z,0.30
2023-01-13T04:17:52.468Z,0.10
2023-01-13T04:20:22.070Z,0.20
2023-01-13T04:22:49.999Z,0.10
2023-01-13T04:25:18.962Z,0.40
2023-01-13T04:27:47.009Z,0.22
2023-01-13T04:30:15.205Z,0.85
2023-01-13T04:32:43.154Z,0.00
2023-01-13T04:35:11.138Z,0.30
2023-01-13T04:37:40.566Z,0.32
2023-01-13T04:40:09.809Z,0.20
2023-01-13T04:42:37.803Z,0.20
2023-01-13T04:45:06.504Z,0.20
2023-01-13T04:47:34.526Z,0.20
2023-01-13T04:50:02.664Z,0.20
2023-01-13T04:52:30.721Z,0.17
2023-01-13T04:55:00.038Z,0.30
2023-01-13T04:57:28.549Z,0.40
2023-01-13T04:59:56.604Z,0.30
2023-01-13T05:02:24.565Z,0.30
2023-01-13T05:04:52.776Z,0.60
2023-01-13T05:07:20.874Z,0.40
2023-01-13T05:09:49.004Z,0.30
2023-01-13T05:12:35.783Z,0.73
2023-01-13T05:15:21.149Z,0.88
2023-01-13T05:17:50.261Z,0.98
2023-01-13T05:20:18.865Z,1.42
2023-01-13T05:23:04.284Z,0.77
2023-01-13T05:25:32.634Z,0.95
2023-01-13T05:28:02.137Z,0.90
2023-01-13T05:30:32.546Z,0.80
2023-01-13T05:33:00.527Z,0.63
2023-01-13T05:35:29.108Z,0.50
2023-01-13T05:37:57.148Z,0.75
2023-01-13T05:40:42.511Z,1.05
2023-01-13T05:43:32.954Z,0.80
2023-01-13T05:46:19.688Z,0.60
2023-01-13T05:49:08.010Z,0.85
2023-01-13T05:51:36.097Z,1.00
2023-01-13T05:54:04.247Z,2.50
2023-01-13T05:56:32.252Z,4.47
2023-01-13T05:59:01.699Z,1.70
2023-01-13T06:01:29.840Z,1.38
2023-01-13T06:03:57.877Z,0.70
2023-01-13T06:06:25.865Z,0.82
2023-01-13T06:08:54.061Z,0.85
2023-01-13T06:11:22.219Z,0.75
2023-01-13T06:13:50.192Z,0.50
2023-01-13T06:16:19.731Z,0.82
2023-01-13T06:18:47.844Z,0.98
2023-01-13T06:21:16.029Z,1.20
2023-01-13T06:23:44.027Z,0.82
2023-01-13T06:26:17.023Z,0.60
2023-01-13T06:28:45.505Z,0.60
2023-01-13T06:31:13.697Z,1.30
2023-01-13T06:33:48.172Z,1.40
2023-01-13T06:36:19.280Z,1.10
2023-01-13T06:38:52.141Z,1.50
2023-01-13T06:41:41.822Z,1.00
2023-01-13T06:44:09.064Z,1.10
2023-01-13T06:46:55.831Z,1.45
2023-01-13T06:49:43.835Z,1.42
2023-01-13T06:52:12.900Z,1.35
2023-01-13T06:54:40.865Z,1.40
2023-01-13T06:57:08.954Z,0.63
2023-01-13T06:59:37.069Z,0.90
2023-01-13T07:02:05.216Z,1.30
2023-01-13T07:04:33.243Z,0.82
2023-01-13T07:07:02.607Z,0.55
2023-01-13T07:09:30.585Z,0.60
2023-01-13T07:11:58.634Z,0.75
2023-01-13T07:14:44.338Z,0.95
2023-01-13T07:17:12.346Z,0.70
2023-01-13T07:19:40.383Z,0.80
2023-01-13T07:22:09.843Z,0.55
2023-01-13T07:24:38.592Z,0.70
2023-01-13T07:27:06.533Z,0.55
2023-01-13T07:29:34.507Z,0.55
2023-01-13T07:32:02.624Z,0.65
2023-01-13T07:34:30.700Z,0.47
2023-01-13T07:36:58.795Z,0.50
2023-01-13T07:39:28.262Z,0.70
2023-01-13T07:42:13.560Z,0.40
2023-01-13T07:44:41.514Z,0.50
2023-01-13T07:47:11.194Z,0.35
2023-01-13T07:49:39.230Z,0.40
2023-01-13T07:52:07.637Z,0.20
2023-01-13T07:54:41.000Z,0.45
2023-01-13T07:57:09.610Z,0.70
2023-01-13T07:59:37.922Z,0.20
2023-01-13T08:02:06.228Z,0.57
2023-01-13T08:04:35.210Z,0.30
2023-01-13T08:07:03.294Z,0.88
2023-01-13T08:09:31.323Z,0.90
2023-01-13T08:12:14.569Z,0.20
2023-01-13T08:14:42.734Z,0.30
2023-01-13T08:17:11.612Z,0.20
2023-01-13T08:19:39.597Z,0.50
2023-01-13T08:22:07.616Z,0.40
2023-01-13T08:24:35.752Z,1.00
2023-01-13T08:27:05.306Z,0.40
2023-01-13T08:29:33.324Z,0.43
2023-01-13T08:32:01.326Z,0.30
2023-01-13T08:34:29.406Z,0.50
2023-01-13T08:36:57.474Z,0.20
2023-01-13T08:39:25.705Z,0.40
2023-01-13T08:41:56.317Z,0.30
2023-01-13T08:44:27.320Z,0.30
2023-01-13T08:46:55.660Z,0.50
2023-01-13T08:49:25.541Z,0.20
2023-01-13T08:51:54.533Z,0.35
2023-01-13T08:54:22.571Z,0.50
2023-01-13T08:56:50.610Z,0.32
2023-01-13T08:59:20.324Z,0.30
2023-01-13T09:01:49.912Z,0.20
2023-01-13T09:04:19.874Z,0.30
2023-01-13T09:06:48.605Z,0.47
2023-01-13T09:09:16.918Z,0.30
2023-01-13T09:12:05.786Z,0.38
2023-01-13T09:14:35.669Z,1.50
2023-01-13T09:17:05.022Z,1.95
2023-01-13T09:19:33.117Z,0.40
2023-01-13T09:22:01.215Z,0.40
2023-01-13T09:24:29.722Z,0.35
2023-01-13T09:26:57.918Z,0.43
2023-01-13T09:29:26.134Z,0.95
2023-01-13T09:31:54.036Z,0.30
2023-01-13T09:34:40.920Z,0.35
2023-01-13T09:37:09.833Z,0.40
2023-01-13T09:39:38.133Z,0.80
2023-01-13T09:42:34.448Z,0.55
2023-01-13T09:45:06.112Z,0.50
2023-01-13T09:47:38.397Z,0.20
2023-01-13T09:50:19.474Z,0.28
2023-01-13T09:52:47.486Z,0.20
2023-01-13T09:55:17.479Z,0.70
2023-01-13T09:57:45.731Z,0.30
2023-01-13T10:00:20.617Z,0.32
2023-01-13T10:03:05.412Z,0.30
2023-01-13T10:05:38.299Z,0.30
2023-01-13T10:08:11.993Z,0.17
2023-01-13T10:10:44.432Z,0.15
2023-01-13T10:13:19.926Z,0.32
2023-01-13T10:15:56.449Z,0.03
2023-01-13T10:18:29.817Z,0.30
2023-01-13T10:21:12.227Z,0.10
2023-01-13T10:23:57.795Z,0.20
2023-01-13T10:26:40.923Z,0.13
2023-01-13T10:29:21.606Z,0.30
2023-01-13T10:31:49.697Z,0.20
2023-01-13T10:34:17.812Z,0.20
2023-01-13T10:37:00.171Z,0.13
2023-01-13T10:39:28.593Z,0.20
2023-01-13T10:42:04.528Z,0.20
2023-01-13T10:44:32.573Z,0.22
2023-01-13T10:47:00.999Z,0.10
2023-01-13T10:49:33.020Z,0.25
2023-01-13T10:52:03.535Z,0.20
2023-01-13T10:54:32.995Z,0.50
2023-01-13T10:57:20.954Z,0.90
2023-01-13T10:59:49.091Z,0.65
2023-01-13T11:02:27.199Z,0.15
2023-01-13T11:05:11.529Z,0.30
2023-01-13T11:07:43.184Z,0.40
2023-01-13T11:10:24.584Z,0.40
2023-01-13T11:13:05.336Z,0.63
2023-01-13T11:15:41.718Z,2.08
2023-01-13T11:18:18.946Z,0.88
2023-01-13T11:20:49.789Z,1.75
2023-01-13T11:23:25.283Z,1.00
2023-01-13T11:25:57.592Z,2.42
2023-01-13T11:28:41.078Z,1.55
2023-01-13T11:31:15.156Z,1.92
2023-01-13T11:33:49.890Z,1.42
2023-01-13T11:36:21.768Z,1.00
2023-01-13T11:38:53.164Z,2.60
2023-01-13T11:41:37.463Z,1.30
2023-01-13T11:44:14.158Z,1.45
2023-01-13T11:46:42.770Z,1.13
2023-01-13T11:49:15.334Z,0.73
2023-01-13T11:51:51.266Z,2.05
2023-01-13T11:54:49.414Z,0.65
2023-01-13T11:57:45.322Z,0.52
2023-01-13T12:00:28.492Z,0.55
2023-01-13T12:03:06.173Z,0.95
2023-01-13T12:05:38.583Z,0.70
2023-01-13T12:08:19.699Z,0.68
2023-01-13T12:11:02.242Z,0.47
2023-01-13T12:13:39.760Z,0.43
2023-01-13T12:16:23.909Z,0.65
2023-01-13T12:19:17.729Z,0.52
2023-01-13T12:21:57.704Z,0.50
2023-01-13T12:24:29.914Z,0.50
2023-01-13T12:27:02.565Z,0.82
2023-01-13T12:32:03.263Z,0.70
2023-01-13T12:34:48.829Z,0.60
2023-01-13T12:37:25.984Z,0.52
2023-01-13T12:40:06.219Z,0.50
2023-01-13T12:43:02.710Z,0.65
2023-01-13T12:45:32.755Z,0.30
2023-01-13T12:48:01.725Z,0.65
2023-01-13T12:50:44.012Z,0.50
2023-01-13T12:53:39.339Z,0.68
2023-01-13T12:56:40.677Z,5.85
2023-01-13T12:59:51.387Z,1.27
2023-01-13T13:02:32.932Z,0.40
2023-01-13T13:05:17.940Z,0.60
2023-01-13T13:07:48.659Z,0.68
2023-01-13T13:10:24.566Z,0.60
2023-01-13T13:13:18.263Z,0.60
2023-01-13T13:15:47.717Z,0.50
2023-01-13T13:18:28.709Z,0.20
2023-01-13T13:21:01.172Z,0.30
2023-01-13T13:23:43.616Z,0.40
2023-01-13T13:26:20.096Z,0.55
2023-01-13T13:28:59.810Z,0.35
2023-01-13T13:31:55.242Z,2.25
2023-01-13T13:34:33.335Z,0.63
2023-01-13T13:37:18.162Z,1.10
2023-01-13T13:40:03.881Z,0.77
2023-01-13T13:42:56.700Z,1.23
2023-01-13T13:45:44.176Z,0.60
2023-01-13T13:48:24.474Z,1.05
2023-01-13T13:50:58.050Z,0.80
2023-01-13T13:53:29.539Z,0.80
2023-01-13T13:55:59.764Z,0.70
2023-01-13T13:58:29.660Z,0.47
2023-01-13T14:00:58.658Z,0.32
2023-01-13T14:03:30.824Z,0.32
2023-01-13T14:06:02.586Z,1.08
2023-01-13T14:08:32.378Z,1.07
2023-01-13T14:11:00.434Z,0.60
2023-01-13T14:13:30.031Z,0.47
2023-01-13T14:16:00.055Z,0.50
2023-01-13T14:18:30.156Z,0.85
2023-01-13T14:21:01.188Z,0.40
2023-01-13T14:23:31.656Z,0.38
2023-01-13T14:26:04.598Z,0.80
2023-01-13T14:28:35.709Z,0.60
2023-01-13T14:31:05.268Z,0.43
2023-01-13T14:33:38.876Z,0.52
2023-01-13T14:36:19.842Z,0.70
2023-01-13T14:38:49.882Z,0.45
2023-01-13T14:41:22.956Z,0.30
2023-01-13T14:43:54.105Z,0.40
2023-01-13T14:46:25.106Z,0.40
2023-01-13T14:49:00.326Z,0.50
2023-01-13T14:51:31.145Z,0.50
2023-01-13T14:53:59.666Z,0.45
2023-01-13T14:56:43.617Z,0.40
2023-01-13T14:59:44.843Z,0.50
2023-01-13T15:02:53.254Z,1.70
2023-01-13T15:05:47.495Z,1.30
2023-01-13T15:08:29.251Z,1.20
2023-01-13T15:11:02.344Z,0.77
2023-01-13T15:13:41.396Z,0.80
2023-01-13T15:16:18.952Z,1.13
2023-01-13T15:18:48.215Z,0.95
2023-01-13T15:21:16.815Z,0.80
2023-01-13T15:23:47.207Z,0.30
2023-01-13T15:26:21.310Z,0.98
2023-01-13T15:28:49.747Z,0.50
2023-01-13T15:31:17.928Z,0.68
2023-01-13T15:33:45.880Z,0.98
2023-01-13T15:36:32.809Z,0.90
2023-01-13T15:39:02.916Z,0.68
2023-01-13T15:41:48.108Z,0.68
2023-01-13T15:44:34.989Z,2.25
2023-01-13T15:47:05.332Z,2.33
2023-01-13T15:49:37.454Z,0.90
2023-01-13T15:52:14.104Z,1.10
2023-01-13T15:54:43.537Z,1.02
2023-01-13T15:57:21.270Z,0.50
2023-01-13T15:59:49.772Z,1.00
2023-01-13T16:02:18.386Z,1.20
2023-01-13T16:04:46.496Z,0.85
2023-01-13T16:07:17.537Z,1.77
2023-01-13T16:09:48.437Z,1.00
2023-01-13T16:12:16.458Z,1.95
2023-01-13T16:14:44.462Z,1.20
2023-01-13T16:17:17.736Z,0.77
2023-01-13T16:19:46.263Z,0.70
2023-01-13T16:22:15.208Z,0.52
2023-01-13T16:24:43.328Z,0.40
2023-01-13T16:27:18.368Z,0.90
2023-01-13T16:29:47.520Z,0.60
2023-01-13T16:32:16.124Z,0.65
2023-01-13T16:34:44.179Z,0.95
2023-01-13T16:37:20.849Z,0.52
2023-01-13T16:39:48.859Z,0.55
2023-01-13T16:42:18.249Z,0.50
2023-01-13T16:44:46.661Z,0.45
2023-01-13T16:47:16.036Z,0.50
2023-01-13T16:49:44.230Z,0.50
2023-01-13T16:52:12.638Z,0.80
2023-01-13T16:54:40.696Z,0.65
2023-01-13T16:57:12.102Z,2.08
2023-01-13T16:59:41.567Z,0.70
2023-01-13T17:02:14.597Z,1.38
2023-01-13T17:04:42.721Z,0.77
2023-01-13T17:07:16.047Z,1.73
2023-01-13T17:09:44.186Z,1.95
2023-01-13T17:12:12.573Z,2.83
2023-01-13T17:14:43.309Z,1.58
2023-01-13T17:17:21.801Z,2.50
2023-01-13T17:19:49.975Z,2.38
2023-01-13T17:22:17.923Z,1.67
2023-01-13T17:24:47.532Z,2.80
2023-01-13T17:27:18.553Z,2.70
2023-01-13T17:29:48.043Z,2.30
2023-01-13T17:32:17.392Z,1.80
2023-01-13T17:34:45.729Z,3.22
2023-01-13T17:37:14.766Z,2.97
2023-01-13T17:39:44.150Z,1.00
2023-01-13T17:42:12.279Z,1.60
2023-01-13T17:44:40.524Z,1.50
2023-01-13T17:47:09.941Z,1.50
2023-01-13T17:49:37.973Z,1.27
2023-01-13T17:52:07.106Z,1.70
2023-01-13T17:54:35.111Z,1.10
2023-01-13T17:57:03.323Z,0.93
2023-01-13T17:59:31.430Z,1.70
2023-01-13T18:01:59.493Z,1.40
2023-01-13T18:04:30.745Z,1.20
2023-01-13T18:06:59.154Z,0.80
2023-01-13T18:09:27.230Z,1.98
2023-01-13T18:11:55.233Z,1.42
2023-01-13T18:14:23.368Z,2.30
2023-01-13T18:16:51.583Z,1.83
2023-01-13T18:19:36.990Z,1.08
2023-01-13T18:22:24.053Z,1.17
2023-01-13T18:25:09.329Z,0.98
2023-01-13T18:27:40.839Z,0.60
2023-01-13T18:30:10.032Z,0.80
2023-01-13T18:32:38.100Z,0.80
2023-01-13T18:35:10.224Z,0.70
2023-01-13T18:37:42.054Z,0.70
2023-01-13T18:40:12.766Z,1.15
2023-01-13T18:42:53.530Z,1.02
2023-01-13T18:45:24.453Z,1.27
2023-01-13T18:47:53.475Z,1.52
2023-01-13T18:50:22.343Z,1.50
2023-01-13T18:52:52.492Z,1.55
2023-01-13T18:55:20.918Z,1.95
2023-01-13T18:57:49.101Z,1.10
2023-01-13T19:00:19.985Z,1.25
2023-01-13T19:02:50.549Z,1.08
2023-01-13T19:05:18.686Z,1.48
2023-01-13T19:07:50.925Z,1.23
2023-01-13T19:10:20.585Z,1.38
2023-01-13T19:12:51.017Z,1.50
2023-01-13T19:15:19.115Z,1.40
2023-01-13T19:17:47.188Z,1.58
2023-01-13T19:20:15.341Z,1.05
2023-01-13T19:22:43.527Z,1.58
2023-01-13T19:25:11.517Z,1.50
2023-01-13T19:27:40.988Z,1.48
2023-01-13T19:30:10.423Z,0.90
2023-01-13T19:32:38.490Z,1.17
2023-01-13T19:35:07.415Z,0.90
2023-01-13T19:37:36.880Z,1.42
2023-01-13T19:40:09.231Z,1.67
2023-01-13T19:42:55.002Z,0.82
2023-01-13T19:45:27.232Z,0.70
2023-01-13T19:47:55.594Z,1.13
2023-01-13T19:50:24.138Z,1.27
2023-01-13T19:52:52.375Z,0.90
2023-01-13T19:55:20.746Z,0.60
2023-01-13T19:57:48.670Z,0.50
2023-01-13T20:00:20.520Z,0.60
2023-01-13T20:02:52.926Z,0.77
2023-01-13T20:05:25.641Z,0.60
2023-01-13T20:07:54.197Z,0.65
2023-01-13T20:10:23.508Z,0.60
2023-01-13T20:12:51.752Z,0.95
2023-01-13T20:15:19.736Z,0.52
2023-01-13T20:17:49.247Z,0.35
2023-01-13T20:20:18.639Z,0.60
2023-01-13T20:22:46.723Z,0.55
2023-01-13T20:25:16.924Z,0.47
2023-01-13T20:27:45.513Z,0.55
2023-01-13T20:30:14.567Z,1.20
2023-01-13T20:32:43.297Z,1.73
2023-01-13T20:35:12.789Z,0.93
2023-01-13T20:37:42.296Z,1.58
2023-01-13T20:40:14.290Z,0.82
2023-01-13T20:42:44.884Z,2.45
2023-01-13T20:45:17.106Z,0.40
2023-01-13T20:47:46.074Z,1.50
2023-01-13T20:50:16.847Z,1.30
2023-01-13T20:52:45.003Z,0.70
2023-01-13T20:55:13.440Z,0.68
2023-01-13T20:57:41.606Z,0.50
2023-01-13T21:00:11.349Z,0.65
2023-01-13T21:02:40.799Z,0.80
2023-01-13T21:05:09.631Z,0.40
2023-01-13T21:07:39.145Z,0.40
2023-01-13T21:10:11.280Z,0.30
2023-01-13T21:12:56.592Z,0.40
2023-01-13T21:15:25.697Z,0.40
2023-01-13T21:18:11.099Z,0.20
2023-01-13T21:20:39.838Z,0.60
2023-01-13T21:23:10.783Z,0.70
2023-01-13T21:25:40.007Z,0.75
2023-01-13T21:28:10.435Z,0.60
2023-01-13T21:30:39.052Z,0.73
2023-01-13T21:33:07.110Z,0.32
2023-01-13T21:35:38.109Z,0.50
2023-01-13T21:38:06.196Z,0.45
2023-01-13T21:40:35.660Z,0.40
2023-01-13T21:43:20.870Z,0.60
2023-01-13T21:46:06.730Z,0.50
2023-01-13T21:48:34.754Z,0.40
2023-01-13T21:51:02.760Z,0.40
2023-01-13T21:53:30.728Z,0.55
2023-01-13T21:56:00.075Z,0.50
2023-01-13T21:58:28.074Z,0.40
2023-01-13T22:00:56.373Z,0.50
2023-01-13T22:03:24.465Z,0.50
2023-01-13T22:05:57.226Z,0.50
2023-01-13T22:08:25.172Z,0.57
2023-01-13T22:10:58.497Z,0.50
2023-01-13T22:13:47.535Z,0.63
2023-01-13T22:16:15.962Z,0.60
2023-01-13T22:18:43.988Z,0.70
2023-01-13T22:21:11.999Z,0.55
2023-01-13T22:23:39.996Z,0.50
2023-01-13T22:26:09.381Z,0.77
2023-01-13T22:28:42.900Z,0.50
2023-01-13T22:31:12.024Z,0.60
2023-01-13T22:33:40.387Z,0.70
2023-01-13T22:36:09.077Z,0.60
2023-01-13T22:38:37.397Z,0.50
2023-01-13T22:41:07.639Z,0.77
2023-01-13T22:43:36.235Z,0.88
2023-01-13T22:46:07.915Z,0.60
2023-01-13T22:48:36.613Z,0.77
2023-01-13T22:51:09.351Z,0.50
2023-01-13T22:53:38.102Z,0.50
2023-01-13T22:56:07.475Z,0.50
2023-01-13T22:58:35.449Z,0.40
2023-01-13T23:01:13.127Z,0.40
2023-01-13T23:03:41.953Z,0.70
2023-01-13T23:06:10.192Z,0.60
2023-01-13T23:08:38.720Z,0.60
2023-01-13T23:11:09.020Z,0.60
2023-01-13T23:13:39.341Z,0.57
2023-01-13T23:16:09.685Z,0.70
2023-01-13T23:18:39.177Z,0.80
2023-01-13T23:21:09.856Z,0.60
2023-01-13T23:23:38.621Z,0.50
2023-01-13T23:26:07.932Z,0.50
2023-01-13T23:28:37.083Z,0.75
2023-01-13T23:31:07.581Z,1.50
2023-01-13T23:33:35.832Z,0.57
2023-01-13T23:36:07.744Z,0.60
2023-01-13T23:38:35.959Z,0.45
2023-01-13T23:41:06.820Z,0.80
2023-01-13T23:43:35.024Z,0.55
2023-01-13T23:46:03.785Z,0.47
2023-01-13T23:48:32.867Z,0.70
2023-01-13T23:51:01.911Z,0.32
2023-01-13T23:53:38.524Z,0.47
2023-01-13T23:56:11.563Z,0.65
2023-01-13T23:58:39.498Z,0.65
